sensor_id;sensor_type;location;lat;lon;timestamp;pressure;altitude;pressure_sealevel;temperature;humidity
75536;BME280;64119;52.070;20.804;2023-07-02T00:00:25;99208.13;;;16.65;86.64
75536;BME280;64119;52.070;20.804;2023-07-02T00:03:13;99207.20;;;16.61;86.85
75536;BME280;64119;52.070;20.804;2023-07-02T00:05:41;99203.90;;;16.57;86.70
75536;BME280;64119;52.070;20.804;2023-07-02T00:08:09;99209.60;;;16.54;86.56
75536;BME280;64119;52.070;20.804;2023-07-02T00:10:37;99207.87;;;16.50;86.47
75536;BME280;64119;52.070;20.804;2023-07-02T00:13:05;99205.43;;;16.46;86.55
75536;BME280;64119;52.070;20.804;2023-07-02T00:15:33;99203.48;;;16.43;86.71
75536;BME280;64119;52.070;20.804;2023-07-02T00:18:00;99205.63;;;16.39;87.13
75536;BME280;64119;52.070;20.804;2023-07-02T00:20:28;99205.27;;;16.35;86.74
75536;BME280;64119;52.070;20.804;2023-07-02T00:22:57;99204.08;;;16.31;86.72
75536;BME280;64119;52.070;20.804;2023-07-02T00:25:25;99207.62;;;16.28;86.84
75536;BME280;64119;52.070;20.804;2023-07-02T00:27:53;99204.83;;;16.26;87.41
75536;BME280;64119;52.070;20.804;2023-07-02T00:30:21;99199.01;;;16.23;87.84
75536;BME280;64119;52.070;20.804;2023-07-02T00:32:48;99201.44;;;16.21;87.87
75536;BME280;64119;52.070;20.804;2023-07-02T00:35:16;99203.08;;;16.18;87.02
75536;BME280;64119;52.070;20.804;2023-07-02T00:37:44;99203.93;;;16.17;87.61
75536;BME280;64119;52.070;20.804;2023-07-02T00:40:11;99202.05;;;16.17;86.73
75536;BME280;64119;52.070;20.804;2023-07-02T00:42:39;99200.32;;;16.16;86.34
75536;BME280;64119;52.070;20.804;2023-07-02T00:45:08;99198.81;;;16.15;87.63
75536;BME280;64119;52.070;20.804;2023-07-02T00:47:35;99200.32;;;16.15;86.76
75536;BME280;64119;52.070;20.804;2023-07-02T00:50:04;99200.22;;;16.16;86.57
75536;BME280;64119;52.070;20.804;2023-07-02T00:52:32;99195.52;;;16.17;86.54
75536;BME280;64119;52.070;20.804;2023-07-02T00:55:00;99195.64;;;16.19;86.65
75536;BME280;64119;52.070;20.804;2023-07-02T00:57:28;99186.41;;;16.21;86.91
75536;BME280;64119;52.070;20.804;2023-07-02T01:00:00;99185.41;;;16.23;87.18
75536;BME280;64119;52.070;20.804;2023-07-02T01:02:29;99185.58;;;16.26;87.31
75536;BME280;64119;52.070;20.804;2023-07-02T01:04:58;99191.71;;;16.28;88.28
75536;BME280;64119;52.070;20.804;2023-07-02T01:07:28;99188.52;;;16.31;88.20
75536;BME280;64119;52.070;20.804;2023-07-02T01:09:56;99188.16;;;16.33;87.91
75536;BME280;64119;52.070;20.804;2023-07-02T01:12:24;99191.52;;;16.36;88.01
75536;BME280;64119;52.070;20.804;2023-07-02T01:14:55;99189.73;;;16.38;88.88
75536;BME280;64119;52.070;20.804;2023-07-02T01:17:26;99188.30;;;16.40;88.65
75536;BME280;64119;52.070;20.804;2023-07-02T01:19:55;99187.42;;;16.45;88.62
75536;BME280;64119;52.070;20.804;2023-07-02T01:22:28;99185.80;;;16.48;88.21
75536;BME280;64119;52.070;20.804;2023-07-02T01:24:57;99183.17;;;16.52;88.49
75536;BME280;64119;52.070;20.804;2023-07-02T01:27:27;99180.59;;;16.56;88.57
75536;BME280;64119;52.070;20.804;2023-07-02T01:29:56;99180.20;;;16.61;88.79
75536;BME280;64119;52.070;20.804;2023-07-02T01:32:23;99175.31;;;16.65;88.69
75536;BME280;64119;52.070;20.804;2023-07-02T01:34:51;99172.13;;;16.70;88.69
75536;BME280;64119;52.070;20.804;2023-07-02T01:37:21;99167.13;;;16.73;88.53
75536;BME280;64119;52.070;20.804;2023-07-02T01:39:49;99166.45;;;16.77;88.60
75536;BME280;64119;52.070;20.804;2023-07-02T01:42:20;99164.55;;;16.80;88.54
75536;BME280;64119;52.070;20.804;2023-07-02T01:44:49;99161.46;;;16.83;88.71
75536;BME280;64119;52.070;20.804;2023-07-02T01:47:20;99163.63;;;16.86;88.47
75536;BME280;64119;52.070;20.804;2023-07-02T01:49:48;99159.18;;;16.88;88.36
75536;BME280;64119;52.070;20.804;2023-07-02T01:52:16;99155.30;;;16.91;88.55
75536;BME280;64119;52.070;20.804;2023-07-02T01:54:45;99157.62;;;16.93;88.42
75536;BME280;64119;52.070;20.804;2023-07-02T01:57:15;99158.16;;;16.96;88.53
75536;BME280;64119;52.070;20.804;2023-07-02T01:59:43;99153.73;;;16.98;88.38
75536;BME280;64119;52.070;20.804;2023-07-02T02:02:11;99153.42;;;17.01;88.47
75536;BME280;64119;52.070;20.804;2023-07-02T02:04:38;99153.98;;;17.04;88.39
75536;BME280;64119;52.070;20.804;2023-07-02T02:07:07;99155.77;;;17.06;88.37
75536;BME280;64119;52.070;20.804;2023-07-02T02:09:35;99152.29;;;17.08;88.17
75536;BME280;64119;52.070;20.804;2023-07-02T02:12:05;99151.50;;;17.12;88.14
75536;BME280;64119;52.070;20.804;2023-07-02T02:14:33;99153.98;;;17.15;87.98
75536;BME280;64119;52.070;20.804;2023-07-02T02:17:01;99151.21;;;17.18;87.80
75536;BME280;64119;52.070;20.804;2023-07-02T02:19:29;99148.50;;;17.21;87.63
75536;BME280;64119;52.070;20.804;2023-07-02T02:21:58;99147.29;;;17.24;87.62
75536;BME280;64119;52.070;20.804;2023-07-02T02:24:26;99145.65;;;17.28;87.47
75536;BME280;64119;52.070;20.804;2023-07-02T02:26:55;99146.62;;;17.31;87.34
75536;BME280;64119;52.070;20.804;2023-07-02T02:29:24;99148.52;;;17.35;87.25
75536;BME280;64119;52.070;20.804;2023-07-02T02:31:51;99152.07;;;17.38;87.21
75536;BME280;64119;52.070;20.804;2023-07-02T02:34:21;99149.61;;;17.41;87.09
75536;BME280;64119;52.070;20.804;2023-07-02T02:36:49;99146.94;;;17.44;87.04
75536;BME280;64119;52.070;20.804;2023-07-02T02:39:16;99147.00;;;17.46;86.72
75536;BME280;64119;52.070;20.804;2023-07-02T02:41:44;99149.86;;;17.50;86.52
75536;BME280;64119;52.070;20.804;2023-07-02T02:44:14;99146.45;;;17.52;86.51
75536;BME280;64119;52.070;20.804;2023-07-02T02:46:42;99147.69;;;17.54;86.35
75536;BME280;64119;52.070;20.804;2023-07-02T02:49:10;99149.05;;;17.55;86.29
75536;BME280;64119;52.070;20.804;2023-07-02T02:51:38;99149.54;;;17.57;86.16
75536;BME280;64119;52.070;20.804;2023-07-02T02:54:06;99146.17;;;17.58;85.95
75536;BME280;64119;52.070;20.804;2023-07-02T02:56:33;99144.13;;;17.59;85.80
75536;BME280;64119;52.070;20.804;2023-07-02T02:59:01;99143.38;;;17.59;85.64
75536;BME280;64119;52.070;20.804;2023-07-02T03:01:32;99139.15;;;17.61;85.49
75536;BME280;64119;52.070;20.804;2023-07-02T03:04:00;99138.94;;;17.62;85.31
75536;BME280;64119;52.070;20.804;2023-07-02T03:06:28;99138.57;;;17.63;85.23
75536;BME280;64119;52.070;20.804;2023-07-02T03:08:56;99135.83;;;17.66;85.06
75536;BME280;64119;52.070;20.804;2023-07-02T03:11:24;99136.70;;;17.69;84.84
75536;BME280;64119;52.070;20.804;2023-07-02T03:13:52;99134.52;;;17.71;84.76
75536;BME280;64119;52.070;20.804;2023-07-02T03:16:20;99130.54;;;17.73;84.65
75536;BME280;64119;52.070;20.804;2023-07-02T03:18:49;99130.17;;;17.76;84.42
75536;BME280;64119;52.070;20.804;2023-07-02T03:21:17;99129.16;;;17.78;84.29
75536;BME280;64119;52.070;20.804;2023-07-02T03:23:44;99126.80;;;17.80;84.07
75536;BME280;64119;52.070;20.804;2023-07-02T03:26:13;99126.81;;;17.83;83.90
75536;BME280;64119;52.070;20.804;2023-07-02T03:28:41;99130.04;;;17.87;83.73
75536;BME280;64119;52.070;20.804;2023-07-02T03:31:10;99131.55;;;17.91;83.50
75536;BME280;64119;52.070;20.804;2023-07-02T03:33:38;99128.89;;;17.95;83.20
75536;BME280;64119;52.070;20.804;2023-07-02T03:36:06;99131.56;;;18.00;82.94
75536;BME280;64119;52.070;20.804;2023-07-02T03:38:34;99132.27;;;18.04;82.68
75536;BME280;64119;52.070;20.804;2023-07-02T03:41:02;99135.71;;;18.09;82.40
75536;BME280;64119;52.070;20.804;2023-07-02T03:43:30;99131.85;;;18.13;82.19
75536;BME280;64119;52.070;20.804;2023-07-02T03:45:57;99136.10;;;18.17;81.99
75536;BME280;64119;52.070;20.804;2023-07-02T03:48:25;99134.92;;;18.21;81.82
75536;BME280;64119;52.070;20.804;2023-07-02T03:50:53;99134.87;;;18.24;81.55
75536;BME280;64119;52.070;20.804;2023-07-02T03:53:21;99131.05;;;18.26;81.11
75536;BME280;64119;52.070;20.804;2023-07-02T03:55:49;99136.05;;;18.29;80.91
75536;BME280;64119;52.070;20.804;2023-07-02T03:58:17;99133.41;;;18.32;80.73
75536;BME280;64119;52.070;20.804;2023-07-02T04:00:45;99129.52;;;18.35;80.64
75536;BME280;64119;52.070;20.804;2023-07-02T04:03:17;99129.83;;;18.38;80.51
75536;BME280;64119;52.070;20.804;2023-07-02T04:05:45;99128.33;;;18.40;80.18
75536;BME280;64119;52.070;20.804;2023-07-02T04:08:14;99126.65;;;18.43;79.82
75536;BME280;64119;52.070;20.804;2023-07-02T04:10:42;99125.38;;;18.45;79.61
75536;BME280;64119;52.070;20.804;2023-07-02T04:13:10;99122.64;;;18.48;79.37
75536;BME280;64119;52.070;20.804;2023-07-02T04:15:38;99122.92;;;18.51;78.95
75536;BME280;64119;52.070;20.804;2023-07-02T04:18:06;99121.69;;;18.54;78.74
75536;BME280;64119;52.070;20.804;2023-07-02T04:20:34;99117.65;;;18.58;78.31
75536;BME280;64119;52.070;20.804;2023-07-02T04:23:02;99117.27;;;18.61;77.97
75536;BME280;64119;52.070;20.804;2023-07-02T04:25:30;99116.95;;;18.65;77.67
75536;BME280;64119;52.070;20.804;2023-07-02T04:28:18;99113.71;;;18.67;77.25
75536;BME280;64119;52.070;20.804;2023-07-02T04:30:46;99116.14;;;18.70;76.69
75536;BME280;64119;52.070;20.804;2023-07-02T04:33:17;99117.42;;;18.72;75.82
75536;BME280;64119;52.070;20.804;2023-07-02T04:35:45;99115.38;;;18.75;76.14
75536;BME280;64119;52.070;20.804;2023-07-02T04:38:13;99117.19;;;18.78;75.93
75536;BME280;64119;52.070;20.804;2023-07-02T04:40:41;99118.27;;;18.82;75.32
75536;BME280;64119;52.070;20.804;2023-07-02T04:43:12;99119.39;;;18.84;75.44
75536;BME280;64119;52.070;20.804;2023-07-02T04:45:40;99116.10;;;18.87;75.47
75536;BME280;64119;52.070;20.804;2023-07-02T04:48:11;99117.34;;;18.91;75.26
75536;BME280;64119;52.070;20.804;2023-07-02T04:50:42;99121.67;;;18.95;74.79
75536;BME280;64119;52.070;20.804;2023-07-02T04:53:11;99126.61;;;18.97;74.09
75536;BME280;64119;52.070;20.804;2023-07-02T04:55:39;99126.72;;;18.99;74.16
75536;BME280;64119;52.070;20.804;2023-07-02T04:58:07;99129.61;;;19.02;73.82
75536;BME280;64119;52.070;20.804;2023-07-02T05:00:35;99128.80;;;19.04;73.61
75536;BME280;64119;52.070;20.804;2023-07-02T05:03:03;99138.67;;;19.07;73.72
75536;BME280;64119;52.070;20.804;2023-07-02T05:05:31;99144.38;;;19.10;74.50
75536;BME280;64119;52.070;20.804;2023-07-02T05:07:59;99147.31;;;19.14;74.57
75536;BME280;64119;52.070;20.804;2023-07-02T05:10:27;99147.79;;;19.19;74.93
75536;BME280;64119;52.070;20.804;2023-07-02T05:12:55;99143.30;;;19.24;74.64
75536;BME280;64119;52.070;20.804;2023-07-02T05:15:23;99139.80;;;19.28;74.34
75536;BME280;64119;52.070;20.804;2023-07-02T05:17:51;99145.05;;;19.32;74.02
75536;BME280;64119;52.070;20.804;2023-07-02T05:20:19;99155.98;;;19.38;75.11
75536;BME280;64119;52.070;20.804;2023-07-02T05:22:47;99152.27;;;19.42;74.63
75536;BME280;64119;52.070;20.804;2023-07-02T05:25:15;99153.65;;;19.44;74.01
75536;BME280;64119;52.070;20.804;2023-07-02T05:27:43;99158.47;;;19.48;74.07
75536;BME280;64119;52.070;20.804;2023-07-02T05:30:11;99160.16;;;19.53;74.91
75536;BME280;64119;52.070;20.804;2023-07-02T05:32:39;99154.45;;;19.59;74.34
75536;BME280;64119;52.070;20.804;2023-07-02T05:35:07;99153.98;;;19.65;74.18
75536;BME280;64119;52.070;20.804;2023-07-02T05:37:35;99153.05;;;19.70;73.99
75536;BME280;64119;52.070;20.804;2023-07-02T05:40:04;99150.82;;;19.73;73.56
75536;BME280;64119;52.070;20.804;2023-07-02T05:42:32;99154.08;;;19.78;73.39
75536;BME280;64119;52.070;20.804;2023-07-02T05:44:59;99152.11;;;19.85;73.31
75536;BME280;64119;52.070;20.804;2023-07-02T05:47:27;99153.52;;;19.91;72.85
75536;BME280;64119;52.070;20.804;2023-07-02T05:49:57;99155.77;;;19.96;72.64
75536;BME280;64119;52.070;20.804;2023-07-02T05:52:25;99154.94;;;19.98;72.23
75536;BME280;64119;52.070;20.804;2023-07-02T05:54:52;99155.65;;;20.04;72.57
75536;BME280;64119;52.070;20.804;2023-07-02T05:57:20;99160.25;;;20.09;72.32
75536;BME280;64119;52.070;20.804;2023-07-02T05:59:48;99163.23;;;20.15;72.03
75536;BME280;64119;52.070;20.804;2023-07-02T06:02:16;99163.69;;;20.18;71.71
75536;BME280;64119;52.070;20.804;2023-07-02T06:04:44;99164.48;;;20.20;71.35
75536;BME280;64119;52.070;20.804;2023-07-02T06:07:12;99163.63;;;20.22;71.72
75536;BME280;64119;52.070;20.804;2023-07-02T06:09:39;99166.54;;;20.25;71.05
75536;BME280;64119;52.070;20.804;2023-07-02T06:12:07;99165.93;;;20.25;70.44
75536;BME280;64119;52.070;20.804;2023-07-02T06:14:35;99172.97;;;20.28;70.19
75536;BME280;64119;52.070;20.804;2023-07-02T06:17:03;99171.48;;;20.31;70.27
75536;BME280;64119;52.070;20.804;2023-07-02T06:19:34;99171.25;;;20.36;69.80
75536;BME280;64119;52.070;20.804;2023-07-02T06:22:02;99172.39;;;20.40;70.08
75536;BME280;64119;52.070;20.804;2023-07-02T06:24:30;99170.14;;;20.47;69.84
75536;BME280;64119;52.070;20.804;2023-07-02T06:26:58;99171.66;;;20.53;69.37
75536;BME280;64119;52.070;20.804;2023-07-02T06:29:26;99176.09;;;20.58;69.04
75536;BME280;64119;52.070;20.804;2023-07-02T06:31:56;99178.95;;;20.63;69.42
75536;BME280;64119;52.070;20.804;2023-07-02T06:34:24;99179.69;;;20.71;69.07
75536;BME280;64119;52.070;20.804;2023-07-02T06:36:51;99178.98;;;20.77;68.94
75536;BME280;64119;52.070;20.804;2023-07-02T06:39:19;99185.88;;;20.84;68.96
75536;BME280;64119;52.070;20.804;2023-07-02T06:41:48;99193.18;;;20.93;69.65
75536;BME280;64119;52.070;20.804;2023-07-02T06:44:17;99190.08;;;21.00;68.60
75536;BME280;64119;52.070;20.804;2023-07-02T06:46:48;99187.34;;;21.09;69.17
75536;BME280;64119;52.070;20.804;2023-07-02T06:49:16;99183.58;;;21.19;68.62
75536;BME280;64119;52.070;20.804;2023-07-02T06:51:44;99179.77;;;21.31;68.45
75536;BME280;64119;52.070;20.804;2023-07-02T06:54:12;99181.91;;;21.38;66.62
75536;BME280;64119;52.070;20.804;2023-07-02T06:56:41;99184.77;;;21.51;67.23
75536;BME280;64119;52.070;20.804;2023-07-02T06:59:08;99181.89;;;21.57;66.16
75536;BME280;64119;52.070;20.804;2023-07-02T07:01:36;99175.08;;;21.59;66.29
75536;BME280;64119;52.070;20.804;2023-07-02T07:04:04;99170.91;;;21.59;66.92
75536;BME280;64119;52.070;20.804;2023-07-02T07:06:32;99169.42;;;21.61;67.37
75536;BME280;64119;52.070;20.804;2023-07-02T07:09:01;99172.77;;;21.61;67.10
75536;BME280;64119;52.070;20.804;2023-07-02T07:11:29;99170.65;;;21.54;66.14
75536;BME280;64119;52.070;20.804;2023-07-02T07:13:57;99177.67;;;21.50;66.08
75536;BME280;64119;52.070;20.804;2023-07-02T07:16:24;99185.64;;;21.46;66.35
75536;BME280;64119;52.070;20.804;2023-07-02T07:18:52;99189.30;;;21.50;66.60
75536;BME280;64119;52.070;20.804;2023-07-02T07:21:21;99196.05;;;21.56;67.01
75536;BME280;64119;52.070;20.804;2023-07-02T07:23:50;99196.31;;;21.61;66.01
75536;BME280;64119;52.070;20.804;2023-07-02T07:26:18;99192.73;;;21.67;65.85
75536;BME280;64119;52.070;20.804;2023-07-02T07:28:46;99192.34;;;21.76;67.14
75536;BME280;64119;52.070;20.804;2023-07-02T07:31:14;99198.96;;;21.89;66.86
75536;BME280;64119;52.070;20.804;2023-07-02T07:33:42;99200.52;;;22.01;66.00
75536;BME280;64119;52.070;20.804;2023-07-02T07:36:11;99205.30;;;22.06;65.99
75536;BME280;64119;52.070;20.804;2023-07-02T07:38:39;99208.84;;;22.06;65.11
75536;BME280;64119;52.070;20.804;2023-07-02T07:41:07;99214.14;;;21.97;64.81
75536;BME280;64119;52.070;20.804;2023-07-02T07:43:35;99213.34;;;21.97;65.57
75536;BME280;64119;52.070;20.804;2023-07-02T07:46:03;99214.73;;;21.93;65.30
75536;BME280;64119;52.070;20.804;2023-07-02T07:48:31;99215.55;;;21.97;66.30
75536;BME280;64119;52.070;20.804;2023-07-02T07:50:59;99216.39;;;22.02;66.45
75536;BME280;64119;52.070;20.804;2023-07-02T07:53:26;99220.58;;;22.01;66.77
75536;BME280;64119;52.070;20.804;2023-07-02T07:55:54;99220.02;;;22.05;67.25
75536;BME280;64119;52.070;20.804;2023-07-02T07:58:23;99221.31;;;22.10;66.59
75536;BME280;64119;52.070;20.804;2023-07-02T08:00:51;99217.01;;;22.15;65.56
75536;BME280;64119;52.070;20.804;2023-07-02T08:03:19;99216.08;;;22.20;66.00
75536;BME280;64119;52.070;20.804;2023-07-02T08:05:47;99215.64;;;22.33;65.87
75536;BME280;64119;52.070;20.804;2023-07-02T08:08:14;99216.78;;;22.42;64.71
75536;BME280;64119;52.070;20.804;2023-07-02T08:10:42;99217.74;;;22.50;65.30
75536;BME280;64119;52.070;20.804;2023-07-02T08:13:10;99222.23;;;22.53;64.77
75536;BME280;64119;52.070;20.804;2023-07-02T08:15:38;99217.55;;;22.49;65.57
75536;BME280;64119;52.070;20.804;2023-07-02T08:18:06;99223.58;;;22.47;66.41
75536;BME280;64119;52.070;20.804;2023-07-02T08:20:35;99231.59;;;22.53;65.74
75536;BME280;64119;52.070;20.804;2023-07-02T08:23:02;99234.52;;;22.53;65.04
75536;BME280;64119;52.070;20.804;2023-07-02T08:25:30;99239.44;;;22.46;65.64
75536;BME280;64119;52.070;20.804;2023-07-02T08:27:59;99236.08;;;22.35;65.25
75536;BME280;64119;52.070;20.804;2023-07-02T08:30:29;99247.54;;;22.20;65.90
75536;BME280;64119;52.070;20.804;2023-07-02T08:32:57;99244.95;;;22.14;65.87
75536;BME280;64119;52.070;20.804;2023-07-02T08:35:24;99250.54;;;22.22;66.00
75536;BME280;64119;52.070;20.804;2023-07-02T08:37:52;99246.38;;;22.26;66.08
75536;BME280;64119;52.070;20.804;2023-07-02T08:40:20;99251.89;;;22.29;66.05
75536;BME280;64119;52.070;20.804;2023-07-02T08:42:48;99247.94;;;22.34;66.09
75536;BME280;64119;52.070;20.804;2023-07-02T08:45:16;99251.30;;;22.37;66.42
75536;BME280;64119;52.070;20.804;2023-07-02T08:47:45;99246.63;;;22.38;66.70
75536;BME280;64119;52.070;20.804;2023-07-02T08:50:13;99247.27;;;22.53;66.04
75536;BME280;64119;52.070;20.804;2023-07-02T08:52:41;99245.13;;;22.68;65.73
75536;BME280;64119;52.070;20.804;2023-07-02T08:55:10;99244.69;;;22.85;65.33
75536;BME280;64119;52.070;20.804;2023-07-02T08:57:38;99242.16;;;22.88;64.86
75536;BME280;64119;52.070;20.804;2023-07-02T09:00:11;99242.09;;;22.79;65.07
75536;BME280;64119;52.070;20.804;2023-07-02T09:02:39;99240.86;;;22.64;65.09
75536;BME280;64119;52.070;20.804;2023-07-02T09:05:07;99247.02;;;22.49;64.94
75536;BME280;64119;52.070;20.804;2023-07-02T09:07:48;99250.41;;;22.31;65.01
75536;BME280;64119;52.070;20.804;2023-07-02T09:10:30;99258.10;;;22.17;65.71
75536;BME280;64119;52.070;20.804;2023-07-02T09:13:07;99259.33;;;22.06;66.52
75536;BME280;64119;52.070;20.804;2023-07-02T09:15:38;99259.55;;;22.06;66.67
75536;BME280;64119;52.070;20.804;2023-07-02T09:18:21;99259.58;;;22.08;66.68
75536;BME280;64119;52.070;20.804;2023-07-02T09:20:54;99266.45;;;21.99;67.37
75536;BME280;64119;52.070;20.804;2023-07-02T09:23:22;99267.95;;;22.00;67.11
75536;BME280;64119;52.070;20.804;2023-07-02T09:25:50;99273.79;;;22.08;67.16
75536;BME280;64119;52.070;20.804;2023-07-02T09:28:19;99273.23;;;22.28;67.22
75536;BME280;64119;52.070;20.804;2023-07-02T09:30:51;99261.74;;;22.55;67.23
75536;BME280;64119;52.070;20.804;2023-07-02T09:33:20;99267.35;;;22.69;66.16
75536;BME280;64119;52.070;20.804;2023-07-02T09:35:48;99267.65;;;22.74;65.88
75536;BME280;64119;52.070;20.804;2023-07-02T09:38:19;99267.77;;;22.69;65.50
75536;BME280;64119;52.070;20.804;2023-07-02T09:40:50;99272.98;;;22.67;65.69
75536;BME280;64119;52.070;20.804;2023-07-02T09:43:18;99274.29;;;22.67;66.80
75536;BME280;64119;52.070;20.804;2023-07-02T09:45:48;99273.15;;;22.70;66.07
75536;BME280;64119;52.070;20.804;2023-07-02T09:48:18;99269.94;;;22.76;65.15
75536;BME280;64119;52.070;20.804;2023-07-02T09:50:50;99263.92;;;22.93;65.86
75536;BME280;64119;52.070;20.804;2023-07-02T09:53:18;99259.52;;;23.11;64.04
75536;BME280;64119;52.070;20.804;2023-07-02T09:55:46;99260.84;;;23.32;64.35
75536;BME280;64119;52.070;20.804;2023-07-02T09:58:16;99261.85;;;23.59;64.18
75536;BME280;64119;52.070;20.804;2023-07-02T10:00:44;99251.90;;;23.83;62.69
75536;BME280;64119;52.070;20.804;2023-07-02T10:03:12;99251.38;;;23.96;62.17
75536;BME280;64119;52.070;20.804;2023-07-02T10:05:40;99247.08;;;24.10;61.15
75536;BME280;64119;52.070;20.804;2023-07-02T10:08:13;99245.38;;;24.17;59.74
75536;BME280;64119;52.070;20.804;2023-07-02T10:10:42;99249.02;;;24.24;60.34
75536;BME280;64119;52.070;20.804;2023-07-02T10:13:10;99251.31;;;24.34;60.50
75536;BME280;64119;52.070;20.804;2023-07-02T10:15:38;99252.77;;;24.51;60.29
75536;BME280;64119;52.070;20.804;2023-07-02T10:18:07;99250.17;;;24.63;59.02
75536;BME280;64119;52.070;20.804;2023-07-02T10:20:36;99253.28;;;24.67;58.77
75536;BME280;64119;52.070;20.804;2023-07-02T10:23:06;99251.52;;;24.70;58.30
75536;BME280;64119;52.070;20.804;2023-07-02T10:25:37;99248.78;;;24.71;58.77
75536;BME280;64119;52.070;20.804;2023-07-02T10:28:20;99243.02;;;24.71;59.01
75536;BME280;64119;52.070;20.804;2023-07-02T10:30:50;99239.88;;;25.05;58.71
75536;BME280;64119;52.070;20.804;2023-07-02T10:33:20;99235.93;;;25.24;56.55
75536;BME280;64119;52.070;20.804;2023-07-02T10:35:49;99233.20;;;25.34;56.35
75536;BME280;64119;52.070;20.804;2023-07-02T10:40:55;99220.55;;;25.93;55.28
75536;BME280;64119;52.070;20.804;2023-07-02T10:43:28;99218.88;;;26.11;53.67
75536;BME280;64119;52.070;20.804;2023-07-02T10:45:58;99218.52;;;26.16;54.02
75536;BME280;64119;52.070;20.804;2023-07-02T10:48:31;99219.98;;;26.06;53.15
75536;BME280;64119;52.070;20.804;2023-07-02T10:50:58;99218.21;;;25.92;53.67
75536;BME280;64119;52.070;20.804;2023-07-02T10:53:26;99221.38;;;26.14;53.32
75536;BME280;64119;52.070;20.804;2023-07-02T10:55:55;99221.14;;;26.24;52.08
75536;BME280;64119;52.070;20.804;2023-07-02T10:58:25;99219.16;;;26.23;52.74
75536;BME280;64119;52.070;20.804;2023-07-02T11:00:53;99222.86;;;26.23;52.89
75536;BME280;64119;52.070;20.804;2023-07-02T11:03:23;99221.21;;;26.22;51.44
75536;BME280;64119;52.070;20.804;2023-07-02T11:05:53;99221.37;;;26.00;51.40
75536;BME280;64119;52.070;20.804;2023-07-02T11:08:22;99224.33;;;25.79;52.07
75536;BME280;64119;52.070;20.804;2023-07-02T11:11:14;99219.80;;;25.85;51.95
75536;BME280;64119;52.070;20.804;2023-07-02T11:13:46;99215.87;;;26.47;51.25
75536;BME280;64119;52.070;20.804;2023-07-02T11:16:26;99213.36;;;27.16;49.52
75536;BME280;64119;52.070;20.804;2023-07-02T11:19:09;99215.66;;;27.72;46.74
75536;BME280;64119;52.070;20.804;2023-07-02T11:21:50;99215.11;;;28.12;44.48
75536;BME280;64119;52.070;20.804;2023-07-02T11:24:34;99209.89;;;28.62;43.79
75536;BME280;64119;52.070;20.804;2023-07-02T11:27:04;99219.65;;;28.58;43.29
75536;BME280;64119;52.070;20.804;2023-07-02T11:29:35;99221.66;;;28.47;44.06
75536;BME280;64119;52.070;20.804;2023-07-02T11:32:13;99226.76;;;28.11;44.08
75536;BME280;64119;52.070;20.804;2023-07-02T11:34:41;99234.60;;;27.72;43.46
75536;BME280;64119;52.070;20.804;2023-07-02T11:37:09;99236.50;;;27.23;45.05
75536;BME280;64119;52.070;20.804;2023-07-02T11:39:37;99236.00;;;26.90;45.92
75536;BME280;64119;52.070;20.804;2023-07-02T11:42:05;99234.38;;;26.72;46.40
75536;BME280;64119;52.070;20.804;2023-07-02T11:44:33;99237.54;;;26.60;46.75
75536;BME280;64119;52.070;20.804;2023-07-02T11:47:01;99240.30;;;26.49;47.52
75536;BME280;64119;52.070;20.804;2023-07-02T11:49:32;99238.02;;;26.43;47.65
75536;BME280;64119;52.070;20.804;2023-07-02T11:52:00;99241.27;;;26.31;49.02
75536;BME280;64119;52.070;20.804;2023-07-02T11:54:28;99243.41;;;26.17;48.37
75536;BME280;64119;52.070;20.804;2023-07-02T11:56:56;99240.98;;;26.05;48.08
75536;BME280;64119;52.070;20.804;2023-07-02T11:59:23;99241.73;;;26.00;48.36
75536;BME280;64119;52.070;20.804;2023-07-02T12:01:51;99242.48;;;26.01;48.12
75536;BME280;64119;52.070;20.804;2023-07-02T12:04:19;99244.20;;;26.01;47.88
75536;BME280;64119;52.070;20.804;2023-07-02T12:06:47;99245.65;;;26.12;47.96
75536;BME280;64119;52.070;20.804;2023-07-02T12:09:18;99246.38;;;26.15;47.78
75536;BME280;64119;52.070;20.804;2023-07-02T12:11:46;99248.00;;;26.01;46.71
75536;BME280;64119;52.070;20.804;2023-07-02T12:14:13;99248.52;;;26.06;46.77
75536;BME280;64119;52.070;20.804;2023-07-02T12:16:41;99251.13;;;25.97;46.08
75536;BME280;64119;52.070;20.804;2023-07-02T12:19:09;99249.56;;;25.76;46.58
75536;BME280;64119;52.070;20.804;2023-07-02T12:21:38;99256.88;;;25.65;47.82
75536;BME280;64119;52.070;20.804;2023-07-02T12:24:06;99257.77;;;25.59;48.20
75536;BME280;64119;52.070;20.804;2023-07-02T12:26:37;99254.95;;;25.53;47.93
75536;BME280;64119;52.070;20.804;2023-07-02T12:29:05;99251.48;;;25.59;47.20
75536;BME280;64119;52.070;20.804;2023-07-02T12:31:33;99248.54;;;25.77;46.84
75536;BME280;64119;52.070;20.804;2023-07-02T12:34:02;99250.86;;;25.82;47.09
75536;BME280;64119;52.070;20.804;2023-07-02T12:36:30;99250.95;;;25.82;45.64
75536;BME280;64119;52.070;20.804;2023-07-02T12:38:58;99250.77;;;25.80;46.88
75536;BME280;64119;52.070;20.804;2023-07-02T12:41:29;99252.02;;;25.72;46.46
75536;BME280;64119;52.070;20.804;2023-07-02T12:44:06;99253.15;;;25.70;46.61
75536;BME280;64119;52.070;20.804;2023-07-02T12:46:37;99253.36;;;25.74;47.33
75536;BME280;64119;52.070;20.804;2023-07-02T12:49:11;99254.27;;;25.69;44.35
75536;BME280;64119;52.070;20.804;2023-07-02T12:51:41;99254.51;;;25.61;42.96
75536;BME280;64119;52.070;20.804;2023-07-02T12:54:09;99251.77;;;25.63;41.12
75536;BME280;64119;52.070;20.804;2023-07-02T12:56:37;99254.20;;;25.52;40.54
75536;BME280;64119;52.070;20.804;2023-07-02T12:59:05;99254.45;;;25.50;41.31
75536;BME280;64119;52.070;20.804;2023-07-02T13:01:33;99258.79;;;25.64;42.44